sensor_id;sensor_type;location;lat;lon;timestamp;pressure;altitude;pressure_sealevel;temperature;humidity
12178;BME280;6152;48.728;9.256;2023-03-22T00:01:37;96932.09;;;9.47;100.00
12178;BME280;6152;48.728;9.256;2023-03-22T00:04:05;96931.34;;;9.45;100.00
12178;BME280;6152;48.728;9.256;2023-03-22T00:06:31;96929.69;;;9.44;100.00
12178;BME280;6152;48.728;9.256;2023-03-22T00:08:57;96928.75;;;9.45;100.00
12178;BME280;6152;48.728;9.256;2023-03-22T00:11:24;96928.66;;;9.47;100.00
12178;BME280;6152;48.728;9.256;2023-03-22T00:13:50;96931.16;;;9.48;100.00
12178;BME280;6152;48.728;9.256;2023-03-22T00:16:18;96929.50;;;9.47;100.00
12178;BME280;6152;48.728;9.256;2023-03-22T00:18:44;96926.97;;;9.46;100.00
12178;BME280;6152;48.728;9.256;2023-03-22T00:21:15;96923.66;;;9.44;100.00
12178;BME280;6152;48.728;9.256;2023-03-22T00:23:41;96926.50;;;9.39;100.00
12178;BME280;6152;48.728;9.256;2023-03-22T00:26:09;96925.00;;;9.35;100.00
12178;BME280;6152;48.728;9.256;2023-03-22T00:28:36;96919.81;;;9.35;100.00
12178;BME280;6152;48.728;9.256;2023-03-22T00:31:02;96925.00;;;9.35;100.00
12178;BME280;6152;48.728;9.256;2023-03-22T00:33:30;96922.53;;;9.34;100.00
12178;BME280;6152;48.728;9.256;2023-03-22T00:36:06;96919.81;;;9.35;100.00
12178;BME280;6152;48.728;9.256;2023-03-22T00:38:33;96919.81;;;9.35;100.00
12178;BME280;6152;48.728;9.256;2023-03-22T00:43:30;96918.25;;;9.33;100.00
12178;BME280;6152;48.728;9.256;2023-03-22T00:45:56;96908.78;;;9.32;100.00
12178;BME280;6152;48.728;9.256;2023-03-22T00:48:23;96906.09;;;9.33;100.00
12178;BME280;6152;48.728;9.256;2023-03-22T00:50:49;96909.44;;;9.35;100.00
12178;BME280;6152;48.728;9.256;2023-03-22T00:53:15;96904.91;;;9.39;100.00
12178;BME280;6152;48.728;9.256;2023-03-22T00:55:41;96900.47;;;9.41;100.00
12178;BME280;6152;48.728;9.256;2023-03-22T00:58:07;96897.75;;;9.42;100.00
12178;BME280;6152;48.728;9.256;2023-03-22T01:00:33;96898.53;;;9.44;100.00
12178;BME280;6152;48.728;9.256;2023-03-22T01:03:00;96896.66;;;9.46;100.00
12178;BME280;6152;48.728;9.256;2023-03-22T01:05:33;96901.84;;;9.46;100.00
12178;BME280;6152;48.728;9.256;2023-03-22T01:08:04;96901.13;;;9.44;100.00
12178;BME280;6152;48.728;9.256;2023-03-22T01:10:37;96896.84;;;9.43;100.00
12178;BME280;6152;48.728;9.256;2023-03-22T01:13:04;96890.16;;;9.39;100.00
12178;BME280;6152;48.728;9.256;2023-03-22T01:15:30;96887.81;;;9.35;100.00
12178;BME280;6152;48.728;9.256;2023-03-22T01:17:57;96881.31;;;9.28;100.00
12178;BME280;6152;48.728;9.256;2023-03-22T01:20:24;96880.66;;;9.24;100.00
12178;BME280;6152;48.728;9.256;2023-03-22T01:22:51;96882.72;;;9.19;100.00
12178;BME280;6152;48.728;9.256;2023-03-22T01:25:17;96876.13;;;9.13;100.00
12178;BME280;6152;48.728;9.256;2023-03-22T01:27:43;96872.03;;;9.09;100.00
12178;BME280;6152;48.728;9.256;2023-03-22T01:30:11;96866.19;;;9.06;100.00
12178;BME280;6152;48.728;9.256;2023-03-22T01:32:37;96863.84;;;9.01;100.00
12178;BME280;6152;48.728;9.256;2023-03-22T01:35:05;96866.69;;;8.97;100.00
12178;BME280;6152;48.728;9.256;2023-03-22T01:37:31;96868.75;;;8.92;100.00
12178;BME280;6152;48.728;9.256;2023-03-22T01:39:57;96868.16;;;8.87;100.00
12178;BME280;6152;48.728;9.256;2023-03-22T01:42:24;96860.56;;;8.84;100.00
12178;BME280;6152;48.728;9.256;2023-03-22T01:47:49;96859.78;;;8.68;100.00
12178;BME280;6152;48.728;9.256;2023-03-22T01:50:17;96860.88;;;8.63;100.00
12178;BME280;6152;48.728;9.256;2023-03-22T01:52:44;96850.09;;;8.55;100.00
12178;BME280;6152;48.728;9.256;2023-03-22T01:55:11;96853.88;;;8.50;100.00
12178;BME280;6152;48.728;9.256;2023-03-22T01:57:38;96842.09;;;8.44;100.00
12178;BME280;6152;48.728;9.256;2023-03-22T02:00:08;96842.41;;;8.38;100.00
12178;BME280;6152;48.728;9.256;2023-03-22T02:02:38;96844.44;;;8.33;100.00
12178;BME280;6152;48.728;9.256;2023-03-22T02:05:04;96849.81;;;8.30;100.00
12178;BME280;6152;48.728;9.256;2023-03-22T02:07:30;96843.84;;;8.28;100.00
12178;BME280;6152;48.728;9.256;2023-03-22T02:09:57;96839.72;;;8.24;100.00
12178;BME280;6152;48.728;9.256;2023-03-22T02:12:42;96846.09;;;8.19;100.00
12178;BME280;6152;48.728;9.256;2023-03-22T02:15:26;96838.41;;;8.17;100.00
12178;BME280;6152;48.728;9.256;2023-03-22T02:21:28;96830.22;;;8.09;100.00
12178;BME280;6152;48.728;9.256;2023-03-22T02:30:16;96825.53;;;8.00;100.00
12178;BME280;6152;48.728;9.256;2023-03-22T02:33:04;96831.72;;;7.97;100.00
12178;BME280;6152;48.728;9.256;2023-03-22T02:35:49;96829.22;;;7.96;100.00
12178;BME280;6152;48.728;9.256;2023-03-22T02:41:11;96830.50;;;7.89;100.00
12178;BME280;6152;48.728;9.256;2023-03-22T02:52:11;96825.44;;;7.70;100.00
12178;BME280;6152;48.728;9.256;2023-03-22T02:54:51;96825.69;;;7.66;100.00
12178;BME280;6152;48.728;9.256;2023-03-22T02:57:29;96825.84;;;7.62;100.00
12178;BME280;6152;48.728;9.256;2023-03-22T02:59:59;96819.16;;;7.58;100.00
12178;BME280;6152;48.728;9.256;2023-03-22T03:02:27;96829.78;;;7.54;100.00
12178;BME280;6152;48.728;9.256;2023-03-22T03:04:55;96832.63;;;7.49;100.00
12178;BME280;6152;48.728;9.256;2023-03-22T03:07:24;96830.34;;;7.43;100.00
12178;BME280;6152;48.728;9.256;2023-03-22T03:09:52;96826.25;;;7.39;100.00
12178;BME280;6152;48.728;9.256;2023-03-22T03:12:21;96832.50;;;7.35;100.00
12178;BME280;6152;48.728;9.256;2023-03-22T03:14:48;96822.41;;;7.31;100.00
12178;BME280;6152;48.728;9.256;2023-03-22T03:23:38;96828.25;;;7.17;100.00
12178;BME280;6152;48.728;9.256;2023-03-22T03:26:12;96839.47;;;7.18;100.00
12178;BME280;6152;48.728;9.256;2023-03-22T03:28:49;96836.03;;;7.17;100.00
12178;BME280;6152;48.728;9.256;2023-03-22T03:31:21;96843.78;;;7.17;100.00
12178;BME280;6152;48.728;9.256;2023-03-22T03:34:03;96835.81;;;7.22;100.00
12178;BME280;6152;48.728;9.256;2023-03-22T03:36:33;96833.16;;;7.23;100.00
12178;BME280;6152;48.728;9.256;2023-03-22T03:39:06;96836.25;;;7.30;100.00
12178;BME280;6152;48.728;9.256;2023-03-22T03:41:34;96839.53;;;7.33;100.00
12178;BME280;6152;48.728;9.256;2023-03-22T03:44:01;96832.44;;;7.37;100.00
12178;BME280;6152;48.728;9.256;2023-03-22T03:46:29;96834.19;;;7.36;100.00
12178;BME280;6152;48.728;9.256;2023-03-22T03:48:56;96835.84;;;7.37;100.00
12178;BME280;6152;48.728;9.256;2023-03-22T03:51:23;96837.50;;;7.38;100.00
12178;BME280;6152;48.728;9.256;2023-03-22T03:53:50;96835.53;;;7.43;100.00
12178;BME280;6152;48.728;9.256;2023-03-22T03:56:16;96838.69;;;7.48;100.00
12178;BME280;6152;48.728;9.256;2023-03-22T03:58:43;96842.13;;;7.49;100.00
12178;BME280;6152;48.728;9.256;2023-03-22T04:01:09;96841.91;;;7.53;100.00
12178;BME280;6152;48.728;9.256;2023-03-22T04:03:35;96842.47;;;7.58;100.00
12178;BME280;6152;48.728;9.256;2023-03-22T04:06:01;96840.56;;;7.62;100.00
12178;BME280;6152;48.728;9.256;2023-03-22T04:08:28;96851.69;;;7.64;100.00
12178;BME280;6152;48.728;9.256;2023-03-22T04:10:54;96849.25;;;7.61;100.00
12178;BME280;6152;48.728;9.256;2023-03-22T04:13:20;96850.25;;;7.58;100.00
12178;BME280;6152;48.728;9.256;2023-03-22T04:15:51;96840.72;;;7.59;100.00
12178;BME280;6152;48.728;9.256;2023-03-22T04:18:17;96839.13;;;7.56;100.00
12178;BME280;6152;48.728;9.256;2023-03-22T04:20:46;96841.72;;;7.56;100.00
12178;BME280;6152;48.728;9.256;2023-03-22T04:23:14;96846.91;;;7.56;100.00
12178;BME280;6152;48.728;9.256;2023-03-22T04:25:40;96847.00;;;7.55;100.00
12178;BME280;6152;48.728;9.256;2023-03-22T04:28:08;96846.91;;;7.56;100.00
12178;BME280;6152;48.728;9.256;2023-03-22T04:30:34;96843.56;;;7.54;100.00
12178;BME280;6152;48.728;9.256;2023-03-22T04:33:04;96835.03;;;7.52;100.00
12178;BME280;6152;48.728;9.256;2023-03-22T04:35:34;96836.53;;;7.56;100.00
12178;BME280;6152;48.728;9.256;2023-03-22T04:38:00;96831.38;;;7.56;100.00
12178;BME280;6152;48.728;9.256;2023-03-22T04:40:27;96846.00;;;7.57;100.00
12178;BME280;6152;48.728;9.256;2023-03-22T04:42:57;96833.97;;;7.56;100.00
12178;BME280;6152;48.728;9.256;2023-03-22T04:45:23;96836.38;;;7.59;100.00
12178;BME280;6152;48.728;9.256;2023-03-22T04:47:54;96836.38;;;7.59;100.00
12178;BME280;6152;48.728;9.256;2023-03-22T04:50:20;96835.63;;;7.57;100.00
12178;BME280;6152;48.728;9.256;2023-03-22T04:52:46;96825.28;;;7.57;100.00
12178;BME280;6152;48.728;9.256;2023-03-22T04:55:12;96828.72;;;7.58;100.00
12178;BME280;6152;48.728;9.256;2023-03-22T04:57:39;96829.38;;;7.61;100.00
12178;BME280;6152;48.728;9.256;2023-03-22T05:00:05;96826.34;;;7.69;100.00
12178;BME280;6152;48.728;9.256;2023-03-22T05:02:33;96821.34;;;7.66;100.00
12178;BME280;6152;48.728;9.256;2023-03-22T05:04:59;96820.84;;;7.59;100.00
12178;BME280;6152;48.728;9.256;2023-03-22T05:07:26;96818.66;;;7.52;100.00
12178;BME280;6152;48.728;9.256;2023-03-22T05:09:52;96819.09;;;7.44;100.00
12178;BME280;6152;48.728;9.256;2023-03-22T05:12:18;96811.78;;;7.35;100.00
12178;BME280;6152;48.728;9.256;2023-03-22T05:14:44;96806.19;;;7.27;100.00
12178;BME280;6152;48.728;9.256;2023-03-22T05:17:10;96800.56;;;7.19;100.00
12178;BME280;6152;48.728;9.256;2023-03-22T05:19:36;96800.91;;;7.13;100.00
12178;BME280;6152;48.728;9.256;2023-03-22T05:22:02;96803.09;;;7.03;100.00
12178;BME280;6152;48.728;9.256;2023-03-22T05:24:30;96804.34;;;6.96;100.00
12178;BME280;6152;48.728;9.256;2023-03-22T05:26:56;96806.56;;;6.87;100.00
12178;BME280;6152;48.728;9.256;2023-03-22T05:29:26;96807.78;;;6.80;100.00
12178;BME280;6152;48.728;9.256;2023-03-22T05:31:53;96810.22;;;6.83;100.00
12178;BME280;6152;48.728;9.256;2023-03-22T05:34:19;96808.09;;;6.74;100.00
12178;BME280;6152;48.728;9.256;2023-03-22T05:36:46;96804.94;;;6.69;100.00
12178;BME280;6152;48.728;9.256;2023-03-22T05:39:13;96806.16;;;6.62;100.00
12178;BME280;6152;48.728;9.256;2023-03-22T05:41:40;96808.84;;;6.58;100.00
12178;BME280;6152;48.728;9.256;2023-03-22T05:44:06;96808.84;;;6.58;100.00
12178;BME280;6152;48.728;9.256;2023-03-22T05:46:33;96804.94;;;6.51;100.00
12178;BME280;6152;48.728;9.256;2023-03-22T05:48:59;96804.38;;;6.45;100.00
12178;BME280;6152;48.728;9.256;2023-03-22T05:51:25;96804.47;;;6.43;100.00
12178;BME280;6152;48.728;9.256;2023-03-22T05:53:52;96808.09;;;6.39;100.00
12178;BME280;6152;48.728;9.256;2023-03-22T05:56:19;96804.75;;;6.37;100.00
12178;BME280;6152;48.728;9.256;2023-03-22T05:58:50;96805.81;;;6.33;100.00
12178;BME280;6152;48.728;9.256;2023-03-22T06:01:17;96810.47;;;6.27;100.00
12178;BME280;6152;48.728;9.256;2023-03-22T06:03:45;96810.72;;;6.21;100.00
12178;BME280;6152;48.728;9.256;2023-03-22T06:06:13;96807.44;;;6.17;100.00
12178;BME280;6152;48.728;9.256;2023-03-22T06:08:39;96801.47;;;6.17;100.00
12178;BME280;6152;48.728;9.256;2023-03-22T06:11:07;96805.66;;;6.19;100.00
12178;BME280;6152;48.728;9.256;2023-03-22T06:13:33;96812.41;;;6.22;100.00
12178;BME280;6152;48.728;9.256;2023-03-22T06:16:00;96813.09;;;6.25;100.00
12178;BME280;6152;48.728;9.256;2023-03-22T06:18:28;96815.53;;;6.28;100.00
12178;BME280;6152;48.728;9.256;2023-03-22T06:20:54;96815.25;;;6.34;100.00
12178;BME280;6152;48.728;9.256;2023-03-22T06:23:20;96815.63;;;6.44;100.00
12178;BME280;6152;48.728;9.256;2023-03-22T06:25:46;96816.75;;;6.55;100.00
12178;BME280;6152;48.728;9.256;2023-03-22T06:28:13;96821.94;;;6.73;100.00
12178;BME280;6152;48.728;9.256;2023-03-22T06:30:39;96820.66;;;6.81;100.00
12178;BME280;6152;48.728;9.256;2023-03-22T06:33:05;96826.19;;;6.91;100.00
12178;BME280;6152;48.728;9.256;2023-03-22T06:35:32;96825.72;;;7.00;100.00
12178;BME280;6152;48.728;9.256;2023-03-22T06:37:59;96830.09;;;7.15;100.00
12178;BME280;6152;48.728;9.256;2023-03-22T06:40:25;96835.41;;;7.29;100.00
12178;BME280;6152;48.728;9.256;2023-03-22T06:42:52;96832.25;;;7.40;100.00
12178;BME280;6152;48.728;9.256;2023-03-22T06:45:20;96837.56;;;7.54;100.00
12178;BME280;6152;48.728;9.256;2023-03-22T06:47:46;96842.34;;;7.61;100.00
12178;BME280;6152;48.728;9.256;2023-03-22T06:50:12;96825.03;;;7.78;100.00
12178;BME280;6152;48.728;9.256;2023-03-22T06:52:40;96836.50;;;7.89;100.00
12178;BME280;6152;48.728;9.256;2023-03-22T06:55:07;96838.59;;;7.98;100.00
12178;BME280;6152;48.728;9.256;2023-03-22T06:57:33;96843.75;;;8.14;100.00
12178;BME280;6152;48.728;9.256;2023-03-22T06:59:59;96842.41;;;8.23;100.00
12178;BME280;6152;48.728;9.256;2023-03-22T07:02:25;96841.09;;;8.31;100.00
12178;BME280;6152;48.728;9.256;2023-03-22T07:04:51;96850.84;;;8.42;100.00
12178;BME280;6152;48.728;9.256;2023-03-22T07:07:17;96844.16;;;8.53;100.00
12178;BME280;6152;48.728;9.256;2023-03-22T07:09:43;96840.19;;;8.62;100.00
12178;BME280;6152;48.728;9.256;2023-03-22T07:12:10;96836.97;;;8.73;100.00
12178;BME280;6152;48.728;9.256;2023-03-22T07:14:36;96839.78;;;8.84;100.00
12178;BME280;6152;48.728;9.256;2023-03-22T07:17:02;96835.66;;;8.95;100.00
12178;BME280;6152;48.728;9.256;2023-03-22T07:19:28;96838.91;;;8.99;100.00
12178;BME280;6152;48.728;9.256;2023-03-22T07:21:54;96844.31;;;9.10;100.00
12178;BME280;6152;48.728;9.256;2023-03-22T07:24:20;96840.25;;;9.20;100.00
12178;BME280;6152;48.728;9.256;2023-03-22T07:26:46;96842.28;;;9.29;100.00
12178;BME280;6152;48.728;9.256;2023-03-22T07:29:13;96843.22;;;9.42;100.00
12178;BME280;6152;48.728;9.256;2023-03-22T07:31:39;96841.91;;;9.49;100.00
12178;BME280;6152;48.728;9.256;2023-03-22T07:34:05;96839.59;;;9.59;100.00
12178;BME280;6152;48.728;9.256;2023-03-22T07:36:32;96835.63;;;9.68;100.00
12178;BME280;6152;48.728;9.256;2023-03-22T07:38:58;96834.13;;;9.78;100.00
12178;BME280;6152;48.728;9.256;2023-03-22T07:41:24;96838.84;;;9.85;100.00
12178;BME280;6152;48.728;9.256;2023-03-22T07:43:51;96835.22;;;9.88;100.00
12178;BME280;6152;48.728;9.256;2023-03-22T07:46:18;96836.31;;;9.98;100.00
12178;BME280;6152;48.728;9.256;2023-03-22T07:48:44;96838.97;;;10.10;100.00
12178;BME280;6152;48.728;9.256;2023-03-22T07:51:10;96841.09;;;10.18;100.00
12178;BME280;6152;48.728;9.256;2023-03-22T07:53:36;96837.00;;;10.28;100.00
12178;BME280;6152;48.728;9.256;2023-03-22T07:56:04;96840.66;;;10.38;100.00
12178;BME280;6152;48.728;9.256;2023-03-22T07:58:30;96832.28;;;10.47;100.00
12178;BME280;6152;48.728;9.256;2023-03-22T08:00:56;96830.75;;;10.57;100.00
12178;BME280;6152;48.728;9.256;2023-03-22T08:03:23;96829.53;;;10.76;100.00
12178;BME280;6152;48.728;9.256;2023-03-22T08:05:50;96833.75;;;10.91;100.00
12178;BME280;6152;48.728;9.256;2023-03-22T08:08:16;96829.91;;;11.09;100.00
12178;BME280;6152;48.728;9.256;2023-03-22T08:10:46;96840.88;;;11.27;100.00
12178;BME280;6152;48.728;9.256;2023-03-22T08:13:13;96839.81;;;11.42;100.00
12178;BME280;6152;48.728;9.256;2023-03-22T08:15:39;96839.41;;;11.60;100.00
12178;BME280;6152;48.728;9.256;2023-03-22T08:18:05;96841.41;;;11.82;97.92
12178;BME280;6152;48.728;9.256;2023-03-22T08:20:33;96846.44;;;11.96;97.90
12178;BME280;6152;48.728;9.256;2023-03-22T08:22:59;96846.22;;;12.12;93.60
12178;BME280;6152;48.728;9.256;2023-03-22T08:25:26;96848.47;;;12.29;85.74
12178;BME280;6152;48.728;9.256;2023-03-22T08:27:52;96846.63;;;12.42;89.43
12178;BME280;6152;48.728;9.256;2023-03-22T08:30:18;96848.63;;;12.62;90.63
12178;BME280;6152;48.728;9.256;2023-03-22T08:32:46;96841.72;;;12.85;88.78
12178;BME280;6152;48.728;9.256;2023-03-22T08:35:12;96840.84;;;13.08;83.01
12178;BME280;6152;48.728;9.256;2023-03-22T08:37:38;96838.91;;;13.23;80.04
12178;BME280;6152;48.728;9.256;2023-03-22T08:40:06;96830.84;;;13.37;74.30
12178;BME280;6152;48.728;9.256;2023-03-22T08:42:34;96834.66;;;13.66;76.21
12178;BME280;6152;48.728;9.256;2023-03-22T08:45:01;96833.47;;;13.82;70.91
12178;BME280;6152;48.728;9.256;2023-03-22T08:47:27;96829.69;;;13.75;72.23
12178;BME280;6152;48.728;9.256;2023-03-22T08:49:54;96839.91;;;13.89;74.47
12178;BME280;6152;48.728;9.256;2023-03-22T08:52:20;96842.28;;;14.03;73.04
12178;BME280;6152;48.728;9.256;2023-03-22T08:54:46;96822.44;;;14.32;74.19
12178;BME280;6152;48.728;9.256;2023-03-22T08:57:12;96827.41;;;14.57;69.26
12178;BME280;6152;48.728;9.256;2023-03-22T08:59:39;96823.50;;;14.84;67.28
12178;BME280;6152;48.728;9.256;2023-03-22T09:02:05;96824.97;;;14.97;67.47
12178;BME280;6152;48.728;9.256;2023-03-22T09:04:31;96828.13;;;15.12;68.67
12178;BME280;6152;48.728;9.256;2023-03-22T09:06:58;96823.25;;;15.49;66.46
12178;BME280;6152;48.728;9.256;2023-03-22T09:09:24;96817.00;;;16.01;63.55
12178;BME280;6152;48.728;9.256;2023-03-22T09:11:50;96813.78;;;16.37;59.79
12178;BME280;6152;48.728;9.256;2023-03-22T09:14:16;96818.53;;;16.72;57.30
12178;BME280;6152;48.728;9.256;2023-03-22T09:16:42;96808.63;;;18.42;52.60
12178;BME280;6152;48.728;9.256;2023-03-22T09:19:09;96803.66;;;20.63;47.97
12178;BME280;6152;48.728;9.256;2023-03-22T09:21:35;96797.94;;;22.42;41.94
12178;BME280;6152;48.728;9.256;2023-03-22T09:24:01;96802.75;;;23.60;39.86
12178;BME280;6152;48.728;9.256;2023-03-22T09:26:27;96802.41;;;24.37;36.04
12178;BME280;6152;48.728;9.256;2023-03-22T09:28:53;96799.25;;;25.47;34.53
12178;BME280;6152;48.728;9.256;2023-03-22T09:31:19;96786.78;;;26.57;31.88
12178;BME280;6152;48.728;9.256;2023-03-22T09:33:45;96783.78;;;26.87;31.28
12178;BME280;6152;48.728;9.256;2023-03-22T09:36:12;96766.78;;;28.44;30.09
12178;BME280;6152;48.728;9.256;2023-03-22T09:38:39;96768.66;;;28.37;29.25
12178;BME280;6152;48.728;9.256;2023-03-22T09:41:12;96767.59;;;28.89;28.99
12178;BME280;6152;48.728;9.256;2023-03-22T09:43:53;96766.28;;;28.67;28.00
12178;BME280;6152;48.728;9.256;2023-03-22T09:46:36;96764.94;;;29.88;26.44
12178;BME280;6152;48.728;9.256;2023-03-22T09:49:15;96763.50;;;27.65;28.66
12178;BME280;6152;48.728;9.256;2023-03-22T09:51:52;96754.41;;;27.79;29.30
12178;BME280;6152;48.728;9.256;2023-03-22T09:54:31;96742.91;;;27.19;29.13
12178;BME280;6152;48.728;9.256;2023-03-22T09:57:05;96751.03;;;26.58;30.13
12178;BME280;6152;48.728;9.256;2023-03-22T09:59:59;96752.91;;;27.89;29.63
12178;BME280;6152;48.728;9.256;2023-03-22T10:05:42;96741.75;;;30.12;26.33
12178;BME280;6152;48.728;9.256;2023-03-22T10:11:24;96733.53;;;29.45;26.05
12178;BME280;6152;48.728;9.256;2023-03-22T10:14:15;96725.03;;;29.30;25.84
12178;BME280;6152;48.728;9.256;2023-03-22T10:16:46;96713.34;;;30.04;25.21
12178;BME280;6152;48.728;9.256;2023-03-22T10:19:27;96713.63;;;30.92;24.99
12178;BME280;6152;48.728;9.256;2023-03-22T10:21:58;96714.41;;;31.22;24.13
12178;BME280;6152;48.728;9.256;2023-03-22T10:24:33;96702.13;;;30.25;25.15
12178;BME280;6152;48.728;9.256;2023-03-22T10:27:00;96700.81;;;29.62;26.01
12178;BME280;6152;48.728;9.256;2023-03-22T10:29:41;96702.00;;;28.22;27.14
12178;BME280;6152;48.728;9.256;2023-03-22T10:32:30;96704.53;;;28.48;26.59
12178;BME280;6152;48.728;9.256;2023-03-22T10:34:57;96691.53;;;27.10;28.11
12178;BME280;6152;48.728;9.256;2023-03-22T10:37:29;96686.97;;;26.04;29.43
12178;BME280;6152;48.728;9.256;2023-03-22T10:39:59;96685.34;;;26.03;30.06
12178;BME280;6152;48.728;9.256;2023-03-22T10:42:29;96694.81;;;27.19;28.85
12178;BME280;6152;48.728;9.256;2023-03-22T10:45:22;96685.91;;;28.67;27.22
12178;BME280;6152;48.728;9.256;2023-03-22T10:47:57;96685.06;;;29.47;25.95
12178;BME280;6152;48.728;9.256;2023-03-22T10:50:45;96688.66;;;28.85;25.79
12178;BME280;6152;48.728;9.256;2023-03-22T10:53:32;96682.03;;;27.60;27.41
12178;BME280;6152;48.728;9.256;2023-03-22T10:56:02;96679.28;;;29.68;25.27
12178;BME280;6152;48.728;9.256;2023-03-22T10:58:30;96679.47;;;29.48;24.93
12178;BME280;6152;48.728;9.256;2023-03-22T11:01:04;96673.38;;;30.74;23.37
12178;BME280;6152;48.728;9.256;2023-03-22T11:03:37;96679.84;;;30.25;23.98
12178;BME280;6152;48.728;9.256;2023-03-22T11:06:16;96668.47;;;29.93;25.11
12178;BME280;6152;48.728;9.256;2023-03-22T11:09:14;96661.09;;;30.36;24.06
12178;BME280;6152;48.728;9.256;2023-03-22T11:11:50;96663.84;;;31.94;23.64
12178;BME280;6152;48.728;9.256;2023-03-22T11:14:39;96664.22;;;32.54;22.00
12178;BME280;6152;48.728;9.256;2023-03-22T11:17:12;96666.44;;;30.96;23.05
12178;BME280;6152;48.728;9.256;2023-03-22T11:19:54;96665.91;;;28.94;24.99
12178;BME280;6152;48.728;9.256;2023-03-22T11:22:37;96658.63;;;28.00;25.76
12178;BME280;6152;48.728;9.256;2023-03-22T11:25:27;96653.97;;;28.34;26.02
12178;BME280;6152;48.728;9.256;2023-03-22T11:30:30;96648.69;;;26.19;28.69
12178;BME280;6152;48.728;9.256;2023-03-22T11:33:18;96654.63;;;26.21;28.69
12178;BME280;6152;48.728;9.256;2023-03-22T11:35:47;96640.69;;;25.65;29.68
12178;BME280;6152;48.728;9.256;2023-03-22T11:38:37;96655.56;;;25.52;30.09
12178;BME280;6152;48.728;9.256;2023-03-22T11:41:27;96643.78;;;26.22;28.74
12178;BME280;6152;48.728;9.256;2023-03-22T11:44:03;96642.78;;;27.54;27.90
12178;BME280;6152;48.728;9.256;2023-03-22T11:46:30;96648.19;;;28.93;25.50
12178;BME280;6152;48.728;9.256;2023-03-22T11:49:02;96642.81;;;29.42;24.70
12178;BME280;6152;48.728;9.256;2023-03-22T11:51:36;96643.53;;;31.05;23.20
12178;BME280;6152;48.728;9.256;2023-03-22T11:56:48;96629.41;;;30.98;22.40
12178;BME280;6152;48.728;9.256;2023-03-22T12:02:25;96622.31;;;30.74;22.00
12178;BME280;6152;48.728;9.256;2023-03-22T12:05:07;96610.03;;;28.97;23.73
12178;BME280;6152;48.728;9.256;2023-03-22T12:07:38;96602.19;;;30.53;23.37
12178;BME280;6152;48.728;9.256;2023-03-22T12:10:29;96604.66;;;29.77;23.42
12178;BME280;6152;48.728;9.256;2023-03-22T12:13:02;96600.00;;;30.62;22.89
12178;BME280;6152;48.728;9.256;2023-03-22T12:15:34;96595.31;;;29.79;23.12
12178;BME280;6152;48.728;9.256;2023-03-22T12:18:08;96595.81;;;30.36;22.82
12178;BME280;6152;48.728;9.256;2023-03-22T12:20:46;96598.69;;;29.38;22.97
12178;BME280;6152;48.728;9.256;2023-03-22T12:23:23;96595.69;;;30.84;21.81
12178;BME280;6152;48.728;9.256;2023-03-22T12:25:54;96589.63;;;28.96;23.64
12178;BME280;6152;48.728;9.256;2023-03-22T12:28:30;96595.09;;;28.27;24.03
12178;BME280;6152;48.728;9.256;2023-03-22T12:30:58;96595.31;;;28.26;24.57
12178;BME280;6152;48.728;9.256;2023-03-22T12:33:41;96588.22;;;28.06;23.45
12178;BME280;6152;48.728;9.256;2023-03-22T12:36:19;96591.97;;;28.62;23.67
12178;BME280;6152;48.728;9.256;2023-03-22T12:38:55;96594.69;;;27.86;23.48
12178;BME280;6152;48.728;9.256;2023-03-22T12:41:33;96586.66;;;28.30;23.58
12178;BME280;6152;48.728;9.256;2023-03-22T12:44:46;96582.16;;;27.80;23.67
12178;BME280;6152;48.728;9.256;2023-03-22T12:47:03;96585.41;;;27.37;24.59
12178;BME280;6152;48.728;9.256;2023-03-22T12:54:47;96582.31;;;25.42;26.96
12178;BME280;6152;48.728;9.256;2023-03-22T12:57:15;96576.19;;;25.07;27.83
12178;BME280;6152;48.728;9.256;2023-03-22T12:59:48;96581.84;;;23.99;29.69
12178;BME280;6152;48.728;9.256;2023-03-22T13:02:24;96574.63;;;23.28;30.98
12178;BME280;6152;48.728;9.256;2023-03-22T13:04:58;96580.22;;;22.75;31.36
12178;BME280;6152;48.728;9.256;2023-03-22T13:09:57;96575.25;;;21.89;32.43
12178;BME280;6152;48.728;9.256;2023-03-22T13:12:25;96574.09;;;21.60;32.96
12178;BME280;6152;48.728;9.256;2023-03-22T13:17:43;96567.47;;;20.62;34.55
12178;BME280;6152;48.728;9.256;2023-03-22T13:25:24;96564.72;;;20.48;35.12
12178;BME280;6152;48.728;9.256;2023-03-22T13:28:01;96555.28;;;20.45;34.79
12178;BME280;6152;48.728;9.256;2023-03-22T13:30:47;96555.63;;;20.42;35.75
12178;BME280;6152;48.728;9.256;2023-03-22T13:33:20;96551.69;;;20.30;35.01
12178;BME280;6152;48.728;9.256;2023-03-22T13:48:55;96536.78;;;19.97;35.94
12178;BME280;6152;48.728;9.256;2023-03-22T13:56:57;96526.06;;;20.14;35.11
12178;BME280;6152;48.728;9.256;2023-03-22T14:02:24;96518.28;;;20.45;34.60
12178;BME280;6152;48.728;9.256;2023-03-22T14:05:13;96512.91;;;20.78;34.29
12178;BME280;6152;48.728;9.256;2023-03-22T14:07:43;96512.19;;;20.92;33.91
12178;BME280;6152;48.728;9.256;2023-03-22T14:10:21;96509.81;;;21.05;34.17
12178;BME280;6152;48.728;9.256;2023-03-22T14:15:51;96509.22;;;20.95;32.31
12178;BME280;6152;48.728;9.256;2023-03-22T14:18:30;96497.53;;;20.81;33.49
12178;BME280;6152;48.728;9.256;2023-03-22T14:21:05;96492.94;;;20.67;33.04
12178;BME280;6152;48.728;9.256;2023-03-22T14:26:36;96504.59;;;20.09;33.46
12178;BME280;6152;48.728;9.256;2023-03-22T14:29:13;96500.78;;;20.12;33.87
12178;BME280;6152;48.728;9.256;2023-03-22T14:31:40;96505.41;;;20.18;32.73
12178;BME280;6152;48.728;9.256;2023-03-22T14:34:12;96504.41;;;20.11;32.61
12178;BME280;6152;48.728;9.256;2023-03-22T14:36:42;96507.25;;;20.09;32.58
12178;BME280;6152;48.728;9.256;2023-03-22T14:39:15;96505.75;;;19.75;32.97
12178;BME280;6152;48.728;9.256;2023-03-22T14:44:23;96504.09;;;19.65;34.00
12178;BME280;6152;48.728;9.256;2023-03-22T14:46:49;96500.47;;;19.66;33.94
12178;BME280;6152;48.728;9.256;2023-03-22T14:49:17;96499.13;;;19.62;33.76
12178;BME280;6152;48.728;9.256;2023-03-22T14:51:47;96490.59;;;19.69;34.21
12178;BME280;6152;48.728;9.256;2023-03-22T14:54:20;96503.41;;;19.55;35.02
12178;BME280;6152;48.728;9.256;2023-03-22T14:56:51;96501.78;;;19.54;34.93
12178;BME280;6152;48.728;9.256;2023-03-22T14:59:19;96504.06;;;19.49;34.78